Latest Weather Observations for Perth

IDW60901

Issued at 5:25 pm WST Saturday 19 April 2014 (issued every 10 minutes, with the page automatically refreshed every 10 minutes)

About weather observations | Map of Perth area stations | Latest observations for Perth area | Other Formats
Station Details ID: 009225 Name: PERTH METRO Lat: -31.92 Lon: 115.87 Height: 24.9 m
Data from the previous 72 hours. | See also: Recent months at Perth
Date/Time
WST
Tmp

°C
App
Tmp
°C
Dew
Point
°C
Rel
Hum
%
Delta-T

°C
Wind Press
QNH
hPa
Press
MSL
hPa
Rain
since
9 am
mm
Dir
 
Spd
km/h
Gust
km/h
Spd
kts
Gust
kts
19/05:00pm 21.4 19.5 14.1 63 4.2 SW 17 26 9 14 1014.4 - 0.0
19/04:30pm 22.1 20.0 13.7 59 4.9 SSW 17 26 9 14 1014.4 - 0.0
19/04:00pm 22.6 20.5 14.7 61 4.7 SSW 19 32 10 17 1014.3 - 0.0
19/03:30pm 23.5 21.8 14.8 58 5.2 SW 17 30 9 16 1014.3 - 0.0
19/03:00pm 24.2 22.3 14.3 54 5.9 SW 17 26 9 14 1014.5 1014.4 0.0
19/02:30pm 25.0 23.8 13.9 50 6.5 SW 13 19 7 10 1014.4 - 0.0
19/02:00pm 24.7 22.9 14.5 53 6.1 SSW 17 24 9 13 1014.5 - 0.0
19/01:30pm 23.7 21.7 13.8 53 5.8 SSW 17 28 9 15 1014.6 - 0.0
19/01:00pm 23.6 21.4 13.2 52 6.0 SSW 17 28 9 15 1015.1 - 0.0
19/12:30pm 24.2 22.3 13.1 50 6.4 SSW 15 24 8 13 1015.6 - 0.0
19/12:00pm 23.6 21.7 12.9 51 6.2 SW 15 24 8 13 1016.1 1016.0 0.0
19/11:30am 23.1 21.0 12.4 51 6.1 SSW 15 28 8 15 1016.6 - 0.0
19/11:00am 22.3 20.2 12.3 53 5.7 S 15 28 8 15 1017.0 - 0.0
19/10:30am 21.7 19.8 13.1 58 4.9 SSW 15 22 8 12 1017.4 - 0.0
19/10:00am 20.8 19.8 13.3 62 4.3 SSW 11 20 6 11 1017.7 - 0.0
19/09:30am 19.5 18.3 12.7 65 3.8 SSW 11 17 6 9 1018.1 - 0.0
19/09:00am 18.3 17.1 12.7 70 3.1 S 11 17 6 9 1018.2 1018.1 0.0
19/08:30am 17.1 15.9 12.8 76 2.4 S 11 15 6 8 1018.3 - 0.0
19/08:00am 16.2 15.8 12.9 81 1.8 SSE 7 11 4 6 1018.0 - 0.0
19/07:30am 14.8 14.2 12.3 85 1.4 S 7 9 4 5 1017.9 - 0.0
19/07:00am 14.0 13.3 12.0 88 1.1 S 7 11 4 6 1018.0 - 0.0
19/06:30am 13.6 13.0 11.8 89 1.0 SSE 6 11 3 6 1017.7 - 0.0
19/06:00am 13.9 13.4 11.9 88 1.1 SSE 6 9 3 5 1017.7 1017.6 0.0
19/05:30am 14.0 14.2 12.0 88 1.1 SSE 2 9 1 5 1017.6 - 0.0
19/05:00am 14.0 14.6 11.9 87 1.1 CALM 0 0 0 0 1017.7 - 0.0
19/04:30am 15.1 14.5 12.2 83 1.6 SSE 7 13 4 7 1018.0 - 0.0
19/04:00am 15.2 14.5 12.1 82 1.7 S 7 13 4 7 1017.7 - 0.0
19/03:30am 15.4 14.8 12.3 82 1.7 S 7 13 4 7 1017.6 - 0.0
19/03:00am 15.8 15.3 12.5 81 1.8 S 7 13 4 7 1017.7 1017.6 0.0
19/02:30am 16.1 15.6 12.7 80 1.9 S 7 13 4 7 1017.8 - 0.0
19/02:00am 16.3 15.8 12.8 80 1.9 S 7 13 4 7 1017.9 - 0.0
19/01:30am 16.9 16.6 13.2 79 2.1 S 7 13 4 7 1017.9 - 0.0
19/01:00am 17.1 17.0 13.4 79 2.1 S 6 9 3 5 1018.0 - 0.0
19/12:30am 17.8 16.8 13.5 76 2.4 S 11 19 6 10 1017.9 - 0.0
19/12:00am 18.3 17.6 14.2 77 2.4 S 11 17 6 9 1017.9 1017.8 0.0
 
Date/Time
WST
Tmp

°C
App
Tmp
°C
Dew
Point
°C
Rel
Hum
%
Delta-T

°C
Wind Press
QNH
hPa
Press
MSL
hPa
Rain
since
9 am
mm
Dir
 
Spd
km/h
Gust
km/h
Spd
kts
Gust
kts
18/11:30pm 18.7 18.1 14.6 77 2.4 S 11 20 6 11 1018.0 - 0.0
18/11:00pm 19.0 17.7 14.7 76 2.5 S 15 26 8 14 1018.3 - 0.0
18/10:30pm 19.1 17.7 14.4 74 2.7 S 15 20 8 11 1018.8 - 0.0
18/10:00pm 19.3 18.5 13.9 71 3.1 S 11 17 6 9 1019.0 - 0.0
18/09:30pm 19.5 18.5 13.4 68 3.5 S 11 17 6 9 1019.1 - 0.0
18/09:00pm 19.8 18.8 13.5 67 3.6 S 11 24 6 13 1019.0 1018.9 0.0
18/08:30pm 20.1 19.1 14.5 70 3.3 S 13 20 7 11 1018.9 - 0.0
18/08:00pm 20.5 20.3 14.8 70 3.3 SSW 9 17 5 9 1018.8 - 0.0
18/07:30pm 20.7 20.6 15.0 70 3.4 SSW 9 17 5 9 1018.8 - 0.0
18/07:00pm 20.9 20.5 15.2 70 3.4 SSW 11 19 6 10 1018.6 - 0.0
18/06:30pm 21.0 20.7 15.5 71 3.3 SSW 11 19 6 10 1018.6 - 0.0
18/06:00pm 21.2 21.7 15.5 70 3.4 S 7 13 4 7 1018.2 1018.1 0.0
18/05:30pm 21.6 21.4 15.7 69 3.5 SSW 11 20 6 11 1018.1 - 0.0
18/05:00pm 22.1 21.1 15.7 67 3.8 SW 15 24 8 13 1018.1 - 0.0
18/04:30pm 23.1 21.5 14.9 60 4.9 SW 17 26 9 14 1017.8 - 0.0
18/04:00pm 24.6 23.0 13.8 51 6.3 SSW 15 24 8 13 1017.6 - 0.0
18/03:30pm 25.8 23.9 11.9 42 8.0 SSW 13 20 7 11 1017.7 - 0.0
18/03:00pm 26.8 25.8 10.9 37 9.0 SSW 7 13 4 7 1017.7 1017.6 0.0
18/02:30pm 26.8 26.9 10.1 35 9.3 CALM 0 6 0 3 1017.8 - 0.0
18/02:00pm 26.5 25.5 10.2 36 9.1 S 6 9 3 5 1017.8 - 0.0
18/01:30pm 26.7 25.7 10.4 36 9.1 ENE 6 11 3 6 1018.1 - 0.0
18/01:00pm 25.9 24.9 10.9 39 8.4 ESE 7 15 4 8 1018.8 - 0.0
18/12:30pm 25.3 24.2 11.8 43 7.7 ESE 9 15 5 8 1019.3 - 0.0
18/12:00pm 24.4 22.8 11.7 45 7.2 ESE 11 19 6 10 1019.8 1019.8 0.0
18/11:30am 22.6 21.5 12.0 51 6.0 ESE 9 15 5 8 1020.2 - 0.0
18/11:00am 22.3 20.8 12.0 52 5.8 ESE 11 19 6 10 1020.7 - 0.0
18/10:30am 21.3 20.5 13.0 59 4.7 ESE 9 15 5 8 1020.9 - 0.0
18/10:00am 20.8 19.4 12.2 58 4.8 E 11 19 6 10 1021.3 - 0.0
18/09:30am 20.6 19.4 12.8 61 4.4 ESE 11 17 6 9 1021.7 - 0.0
18/09:00am 18.9 17.6 12.4 66 3.6 ESE 11 20 6 11 1021.8 1021.8 0.0
18/08:30am 17.5 16.0 12.0 70 3.0 E 11 20 6 11 1022.0 - 0.0
18/08:00am 17.6 16.6 12.3 71 2.9 E 9 22 5 12 1022.0 - 0.0
18/07:30am 16.5 15.2 12.5 77 2.2 ENE 11 20 6 11 1021.9 - 0.0
18/07:00am 15.6 14.9 12.0 79 2.0 E 7 15 4 8 1021.7 - 0.0
18/06:30am 15.9 15.2 11.9 77 2.2 ENE 7 13 4 7 1021.6 - 0.0
18/06:00am 16.3 15.2 11.9 75 2.4 E 9 19 5 10 1021.5 1021.5 0.0
18/05:30am 16.2 15.6 11.8 75 2.4 E 6 11 3 6 1021.6 - 0.0
18/05:00am 16.7 15.1 11.6 72 2.8 E 11 24 6 13 1021.5 - 0.0
18/04:30am 16.7 15.5 11.6 72 2.8 E 9 19 5 10 1021.3 - 0.0
18/04:00am 16.6 15.4 11.5 72 2.8 E 9 19 5 10 1021.2 - 0.0
18/03:30am 17.0 15.7 11.3 69 3.1 E 9 17 5 9 1021.3 - 0.0
18/03:00am 17.2 15.4 11.0 67 3.3 E 11 22 6 12 1021.2 1021.2 0.0
18/02:30am 15.5 15.2 11.3 76 2.3 SSE 4 6 2 3 1021.4 - 0.0
18/02:00am 16.8 15.8 11.1 69 3.1 SSE 7 11 4 6 1021.5 - 0.0
18/01:30am 16.5 15.6 12.7 78 2.1 SSE 9 13 5 7 1021.6 - 0.0
18/01:00am 16.0 15.9 13.3 84 1.5 SSE 6 9 3 5 1021.7 - 0.0
18/12:30am 16.5 16.9 13.8 84 1.5 SSE 4 9 2 5 1021.8 - 0.0
18/12:00am 16.8 16.8 13.7 82 1.7 S 6 9 3 5 1021.9 1021.9 0.0
 
Date/Time
WST
Tmp

°C
App
Tmp
°C
Dew
Point
°C
Rel
Hum
%
Delta-T

°C
Wind Press
QNH
hPa
Press
MSL
hPa
Rain
since
9 am
mm
Dir
 
Spd
km/h
Gust
km/h
Spd
kts
Gust
kts
17/11:30pm 17.4 17.8 13.7 79 2.1 S 4 9 2 5 1022.0 - 0.0
17/11:00pm 18.1 17.6 13.8 76 2.5 S 9 13 5 7 1022.1 - 0.0
17/10:30pm 18.5 17.7 14.0 75 2.6 S 11 19 6 10 1022.3 - 0.0
17/10:00pm 18.5 18.1 14.2 76 2.5 S 9 13 5 7 1022.4 - 0.0
17/09:30pm 18.8 18.1 14.3 75 2.6 S 11 15 6 8 1022.5 - 0.0
17/09:00pm 19.3 19.0 14.3 73 2.9 S 9 17 5 9 1022.5 1022.5 0.0
17/08:30pm 19.6 18.6 14.6 73 2.9 S 13 20 7 11 1022.5 - 0.0
17/08:00pm 19.8 18.9 14.8 73 2.9 S 13 19 7 10 1022.3 - 0.0
17/07:30pm 19.9 19.3 14.7 72 3.0 S 11 19 6 10 1022.0 - 0.0
17/07:00pm 20.1 18.7 14.5 70 3.3 S 15 28 8 15 1021.7 - 0.0
17/06:30pm 20.6 19.0 14.0 66 3.8 SSW 15 24 8 13 1021.4 - 0.0
17/06:00pm 20.8 19.9 13.7 64 4.1 SSW 11 17 6 9 1021.0 1021.0 0.0
17/05:30pm 21.1 19.5 14.0 64 4.1 SW 15 26 8 14 1020.8 - 0.0
17/05:00pm 21.4 20.2 14.1 63 4.2 SW 13 22 7 12 1020.5 - 0.0
17/04:30pm 21.9 20.1 14.5 63 4.3 SW 17 28 9 15 1020.4 - 0.0
17/04:00pm 23.3 21.6 13.5 54 5.7 SW 15 24 8 13 1020.3 - 0.0
17/03:30pm 24.1 22.2 13.0 50 6.4 SW 15 26 8 14 1020.5 - 0.0
17/03:00pm 24.4 22.3 12.4 47 6.9 SSW 15 26 8 14 1020.5 1020.5 0.0
17/02:30pm 24.9 22.6 11.8 44 7.5 SW 15 30 8 16 1020.5 - 0.0
17/02:00pm 25.2 23.1 12.4 45 7.4 SW 15 24 8 13 1020.5 - 0.0
17/01:30pm 24.0 21.8 12.0 47 6.8 SW 15 24 8 13 1020.6 - 0.0
17/01:00pm 24.4 22.5 11.7 45 7.2 SW 13 26 7 14 1021.0 - 0.0
17/12:30pm 24.1 23.0 12.1 47 6.8 S 9 19 5 10 1021.5 - 0.0
17/12:00pm 23.0 21.1 11.7 49 6.3 SSE 13 17 7 9 1021.8 1021.8 0.0
17/11:30am 22.9 21.3 11.6 49 6.3 SSW 11 19 6 10 1022.1 - 0.0
17/11:00am 22.3 21.0 12.5 53 5.6 SE 11 20 6 11 1022.5 - 0.0
17/10:30am 22.2 21.7 12.2 53 5.7 SSE 6 11 3 6 1022.6 - 0.0
17/10:00am 21.7 21.4 12.8 57 5.1 NE 6 11 3 6 1022.6 - 0.0
17/09:30am 19.6 19.5 12.1 62 4.2 NE 4 9 2 5 1022.6 - 0.0
17/09:00am 18.1 17.4 12.1 68 3.3 NE 7 11 4 6 1022.6 1022.6 0.0
17/08:30am 16.5 15.8 11.9 74 2.5 NE 7 11 4 6 1022.5 - 0.0
17/08:00am 15.1 14.4 12.1 82 1.6 NE 7 13 4 7 1022.4 - 0.0
17/07:30am 12.6 13.2 11.8 95 0.4 CALM 0 0 0 0 1022.1 - 0.0
17/07:00am 11.5 11.8 10.9 96 0.3 CALM 0 0 0 0 1021.7 - 0.0
17/06:30am 10.8 10.9 10.0 95 0.4 CALM 0 0 0 0 1021.3 - 0.0
17/06:00am 10.6 10.6 9.8 95 0.4 CALM 0 0 0 0 1021.1 1021.1 0.0
17/05:30am 10.9 11.0 10.1 95 0.4 CALM 0 0 0 0 1020.9 - 0.0
17/05:00am 11.3 11.5 10.5 95 0.4 CALM 0 0 0 0 1020.6 - 0.0
17/04:30am 11.4 11.6 10.5 94 0.5 CALM 0 0 0 0 1020.4 - 0.0
17/04:00am 11.7 11.9 10.6 93 0.6 CALM 0 0 0 0 1020.3 - 0.0
17/03:30am 12.2 12.5 10.9 92 0.7 CALM 0 0 0 0 1020.3 - 0.0
17/03:00am 12.7 13.1 11.4 92 0.7 CALM 0 2 0 1 1020.3 1020.3 0.0
17/02:30am 12.8 13.2 11.4 91 0.7 CALM 0 0 0 0 1020.3 - 0.0
17/02:00am 13.1 13.5 11.3 89 1.0 CALM 0 0 0 0 1020.5 - 0.0
17/01:30am 13.7 14.1 11.4 86 1.2 CALM 0 0 0 0 1020.4 - 0.0
17/01:00am 14.7 14.7 11.3 80 1.8 S 2 7 1 4 1020.3 - 0.0
17/12:30am 15.8 14.6 11.6 76 2.3 SSE 9 15 5 8 1020.2 - 0.0
17/12:00am 15.9 15.2 11.5 75 2.4 S 6 7 3 4 1020.4 1020.4 0.0
 
Date/Time
WST
Tmp

°C
App
Tmp
°C
Dew
Point
°C
Rel
Hum
%
Delta-T

°C
Wind Press
QNH
hPa
Press
MSL
hPa
Rain
since
9 am
mm
Dir
 
Spd
km/h
Gust
km/h
Spd
kts
Gust
kts
16/11:30pm 16.5 15.4 11.9 74 2.5 S 9 13 5 7 1020.4 - 0.0
16/11:00pm 16.9 15.8 12.0 73 2.7 S 9 15 5 8 1020.5 - 0.0
16/10:30pm 17.3 16.2 12.0 71 2.9 S 9 15 5 8 1020.6 - 0.0
16/10:00pm 17.6 16.5 12.1 70 3.0 S 9 17 5 9 1020.7 - 0.0
16/09:30pm 17.8 16.3 11.8 68 3.3 S 11 17 6 9 1020.6 - 0.0
16/09:00pm 18.0 16.5 11.8 67 3.4 S 11 19 6 10 1020.5 1020.5 0.0
16/08:30pm 18.4 16.9 11.9 66 3.6 S 11 19 6 10 1020.4 - 0.0
16/08:00pm 18.7 17.7 12.2 66 3.6 S 9 22 5 12 1020.3 - 0.0
16/07:30pm 18.7 18.2 12.5 67 3.5 S 7 13 4 7 1020.1 - 0.0
16/07:00pm 19.0 18.1 12.7 67 3.5 SSW 9 15 5 8 1020.1 - 0.0
16/06:30pm 19.4 18.2 12.9 66 3.7 SW 11 19 6 10 1020.0 - 0.0
16/06:00pm 19.5 18.0 13.0 66 3.7 SW 13 20 7 11 1019.8 1019.8 0.0
16/05:30pm 20.0 18.2 13.2 65 3.9 SW 15 26 8 14 1019.8 - 0.0

Latest Capital City Observations: Canberra | Sydney | Melbourne | Brisbane | Adelaide | Perth | Hobart | Darwin

Other Formats:

Comma delimited format used in spreadsheet applications
http://www.bom.gov.au/fwo/IDW60901/IDW60901.94608.axf

JavaScript Object Notation format (JSON) in row-major order
http://www.bom.gov.au/fwo/IDW60901/IDW60901.94608.json